createdAt,value
2018-08-03T00:00:49.940Z,20.51
2018-08-03T00:03:56.269Z,20.47
2018-08-03T00:07:02.575Z,20.44
2018-08-03T00:10:07.898Z,20.39
2018-08-03T00:13:13.759Z,20.36
2018-08-03T00:16:19.401Z,20.34
2018-08-03T00:19:25.709Z,20.30
2018-08-03T00:22:31.810Z,20.24
2018-08-03T00:25:38.886Z,20.19
2018-08-03T00:28:44.767Z,20.15
2018-08-03T00:31:50.601Z,20.14
2018-08-03T00:34:55.809Z,20.10
2018-08-03T00:38:02.297Z,20.06
2018-08-03T00:41:08.263Z,20.01
2018-08-03T00:44:14.754Z,19.97
2018-08-03T00:47:20.483Z,19.93
2018-08-03T00:50:26.814Z,19.90
2018-08-03T00:53:32.444Z,19.87
2018-08-03T00:56:38.498Z,19.80
2018-08-03T00:59:43.694Z,19.77
2018-08-03T01:02:49.761Z,19.73
2018-08-03T01:05:55.824Z,19.71
2018-08-03T01:09:01.424Z,19.67
2018-08-03T01:12:06.893Z,19.65
2018-08-03T01:15:12.034Z,19.63
2018-08-03T01:18:17.208Z,19.59
2018-08-03T01:21:22.348Z,19.58
2018-08-03T01:24:28.176Z,19.53
2018-08-03T01:27:35.151Z,19.50
2018-08-03T01:30:41.911Z,19.45
2018-08-03T01:33:48.046Z,19.43
2018-08-03T01:36:55.297Z,19.40
2018-08-03T01:40:01.284Z,19.36
2018-08-03T01:43:07.227Z,19.36
2018-08-03T01:46:12.102Z,19.30
2018-08-03T01:49:16.952Z,19.27
2018-08-03T01:52:22.375Z,19.23
2018-08-03T01:55:27.778Z,19.21
2018-08-03T01:58:33.622Z,19.18
2018-08-03T02:01:39.997Z,19.13
2018-08-03T02:04:45.523Z,19.12
2018-08-03T02:07:51.646Z,19.07
2018-08-03T02:10:57.277Z,19.04
2018-08-03T02:14:04.376Z,18.99
2018-08-03T02:17:09.553Z,18.99
2018-08-03T02:20:15.310Z,18.96
2018-08-03T02:23:22.341Z,18.96
2018-08-03T02:26:27.486Z,18.90
2018-08-03T02:29:33.627Z,18.90
2018-08-03T02:32:38.767Z,18.86
2018-08-03T02:35:43.911Z,18.83
2018-08-03T02:38:49.334Z,18.81
2018-08-03T02:41:56.204Z,18.76
2018-08-03T02:45:02.180Z,18.74
2018-08-03T02:48:09.500Z,18.71
2018-08-03T02:51:15.446Z,18.72
2018-08-03T02:54:21.925Z,18.67
2018-08-03T02:57:27.593Z,18.67
2018-08-03T03:00:33.395Z,18.65
2018-08-03T03:03:40.558Z,18.62
2018-08-03T03:06:47.306Z,18.57
2018-08-03T03:09:52.451Z,18.53
2018-08-03T03:12:59.249Z,18.53
2018-08-03T03:16:05.170Z,18.53
2018-08-03T03:19:11.258Z,18.49
2018-08-03T03:22:18.386Z,18.44
2018-08-03T03:25:24.543Z,18.43
2018-08-03T03:28:30.605Z,18.40
2018-08-03T03:31:36.586Z,18.35
2018-08-03T03:34:42.434Z,18.36
2018-08-03T03:37:49.510Z,18.31
2018-08-03T03:40:55.596Z,18.33
2018-08-03T03:44:02.264Z,18.26
2018-08-03T03:47:08.187Z,18.24
2018-08-03T03:50:13.309Z,18.20
2018-08-03T03:53:18.475Z,18.18
2018-08-03T03:56:24.910Z,18.16
2018-08-03T03:59:30.050Z,18.17
2018-08-03T04:02:36.526Z,18.16
2018-08-03T04:05:42.926Z,18.13
2018-08-03T04:08:49.928Z,18.13
2018-08-03T04:11:55.648Z,18.14
2018-08-03T04:15:00.771Z,18.14
2018-08-03T04:18:11.074Z,18.11
2018-08-03T04:21:16.638Z,18.09
2018-08-03T04:24:22.186Z,18.12
2018-08-03T04:27:27.070Z,18.10
2018-08-03T04:30:32.214Z,18.13
2018-08-03T04:33:37.369Z,18.15
2018-08-03T04:36:42.530Z,18.15
2018-08-03T04:39:47.665Z,18.12
2018-08-03T04:42:53.718Z,18.17
2018-08-03T04:46:01.829Z,18.14
2018-08-03T04:49:07.999Z,18.13
2018-08-03T04:52:13.476Z,18.13
2018-08-03T04:55:18.590Z,18.16
2018-08-03T04:58:23.780Z,18.21
2018-08-03T05:01:28.952Z,18.21
2018-08-03T05:04:35.059Z,18.22
2018-08-03T05:07:41.224Z,18.20
2018-08-03T05:10:46.993Z,18.25
2018-08-03T05:13:52.403Z,18.27
2018-08-03T05:16:57.562Z,18.29
2018-08-03T05:20:03.464Z,18.35
2018-08-03T05:23:10.469Z,18.31
2018-08-03T05:26:17.610Z,18.31
2018-08-03T05:29:23.680Z,18.35
2018-08-03T05:32:30.540Z,18.40
2018-08-03T05:35:36.774Z,18.46
2018-08-03T05:38:42.762Z,18.55
2018-08-03T05:41:48.247Z,18.61
2018-08-03T05:44:53.519Z,18.68
2018-08-03T05:48:00.573Z,18.73
2018-08-03T05:51:07.794Z,18.78
2018-08-03T05:54:13.603Z,18.84
2018-08-03T05:57:20.666Z,18.88
2018-08-03T06:00:26.670Z,18.95
2018-08-03T06:03:34.377Z,19.00
2018-08-03T06:06:39.782Z,19.07
2018-08-03T06:09:46.541Z,19.13
2018-08-03T06:12:53.604Z,19.19
2018-08-03T06:15:59.362Z,19.25
2018-08-03T06:19:04.956Z,19.31
2018-08-03T06:22:11.430Z,19.39
2018-08-03T06:25:18.503Z,19.47
2018-08-03T06:28:25.882Z,19.56
2018-08-03T06:31:30.918Z,19.62
2018-08-03T06:34:37.227Z,19.70
2018-08-03T06:37:43.018Z,19.80
2018-08-03T06:40:48.798Z,19.89
2018-08-03T06:43:54.645Z,19.97
2018-08-03T06:47:00.327Z,20.07
2018-08-03T06:50:06.054Z,20.15
2018-08-03T06:53:11.499Z,20.24
2018-08-03T06:56:16.692Z,20.34
2018-08-03T06:59:22.709Z,20.43
2018-08-03T07:02:28.765Z,20.51
2018-08-03T07:05:33.971Z,20.60
2018-08-03T07:08:39.139Z,20.70
2018-08-03T07:11:44.304Z,20.78
2018-08-03T07:14:49.494Z,20.88
2018-08-03T07:17:54.798Z,20.98
2018-08-03T07:21:00.938Z,21.06
2018-08-03T07:24:08.153Z,21.17
2018-08-03T07:27:13.642Z,21.27
2018-08-03T07:30:19.515Z,21.36
2018-08-03T07:33:25.514Z,21.47
2018-08-03T07:36:32.592Z,21.56
2018-08-03T07:39:38.944Z,21.66
2018-08-03T07:42:44.765Z,21.77
2018-08-03T07:45:50.644Z,21.87
2018-08-03T07:48:56.043Z,21.98
2018-08-03T07:52:01.407Z,22.09
2018-08-03T07:55:07.311Z,22.20
2018-08-03T07:58:12.437Z,22.32
2018-08-03T08:01:18.402Z,22.44
2018-08-03T08:04:25.542Z,22.58
2018-08-03T08:07:31.335Z,22.71
2018-08-03T08:10:37.885Z,22.83
2018-08-03T08:13:43.148Z,22.95
2018-08-03T08:16:48.338Z,23.05
2018-08-03T08:19:54.575Z,23.14
2018-08-03T08:23:01.671Z,23.24
2018-08-03T08:26:08.535Z,23.32
2018-08-03T08:29:13.831Z,23.41
2018-08-03T08:32:19.257Z,23.48
2018-08-03T08:35:26.532Z,23.56
2018-08-03T08:38:33.341Z,23.64
2018-08-03T08:41:39.878Z,23.72
2018-08-03T08:44:45.002Z,23.79
2018-08-03T08:47:50.174Z,23.85
2018-08-03T08:50:56.297Z,23.93
2018-08-03T08:54:01.699Z,24.01
2018-08-03T08:57:07.226Z,24.11
2018-08-03T09:00:14.085Z,24.20
2018-08-03T09:03:19.833Z,24.31
2018-08-03T09:06:27.205Z,24.43
2018-08-03T09:09:32.681Z,24.54
2018-08-03T09:12:38.587Z,24.66
2018-08-03T09:15:44.199Z,24.79
2018-08-03T09:18:49.741Z,24.92
2018-08-03T09:21:55.315Z,25.06
2018-08-03T09:25:01.602Z,25.20
2018-08-03T09:28:08.055Z,25.33
2018-08-03T09:31:13.523Z,25.45
2018-08-03T09:34:18.667Z,25.59
2018-08-03T09:37:24.226Z,25.72
2018-08-03T09:40:30.321Z,25.87
2018-08-03T09:43:36.190Z,26.00
2018-08-03T09:46:42.169Z,26.14
2018-08-03T09:49:48.235Z,26.29
2018-08-03T09:52:53.161Z,26.48
2018-08-03T09:55:59.227Z,26.69
2018-08-03T09:59:04.378Z,26.85
2018-08-03T10:02:09.294Z,27.04
2018-08-03T10:05:14.402Z,27.18
2018-08-03T10:08:19.914Z,27.30
2018-08-03T10:11:25.774Z,27.43
2018-08-03T10:14:30.907Z,27.52
2018-08-03T10:17:36.051Z,27.59
2018-08-03T10:20:41.290Z,27.66
2018-08-03T10:23:48.358Z,27.70
2018-08-03T10:26:55.638Z,27.76
2018-08-03T10:30:01.609Z,27.83
2018-08-03T10:33:06.815Z,27.89
2018-08-03T10:36:12.102Z,27.98
2018-08-03T10:39:18.307Z,28.04
2018-08-03T10:42:24.341Z,28.12
2018-08-03T10:45:29.989Z,28.19
2018-08-03T10:48:36.124Z,28.25
2018-08-03T10:51:41.408Z,28.31
2018-08-03T10:54:47.486Z,28.37
2018-08-03T10:57:53.674Z,28.43
2018-08-03T11:00:58.802Z,28.50
2018-08-03T11:04:03.951Z,28.57
2018-08-03T11:07:09.516Z,28.61
2018-08-03T11:10:16.868Z,28.67
2018-08-03T11:13:22.016Z,28.73
2018-08-03T11:16:27.585Z,28.78
2018-08-03T11:19:34.720Z,28.81
2018-08-03T11:22:39.870Z,28.86
2018-08-03T11:25:45.539Z,28.91
2018-08-03T11:28:50.724Z,28.97
2018-08-03T11:31:56.885Z,29.03
2018-08-03T11:35:03.897Z,29.10
2018-08-03T11:38:10.935Z,29.14
2018-08-03T11:41:16.064Z,29.21
2018-08-03T11:44:22.779Z,29.26
2018-08-03T11:47:28.602Z,29.31
2018-08-03T11:50:33.743Z,29.35
2018-08-03T11:53:38.878Z,29.40
2018-08-03T11:56:44.001Z,29.47
2018-08-03T11:59:49.158Z,29.56
2018-08-03T12:02:56.685Z,29.64
2018-08-03T12:06:02.246Z,29.72
2018-08-03T12:09:08.818Z,29.82
2018-08-03T12:12:14.155Z,29.89
2018-08-03T12:15:19.263Z,29.97
2018-08-03T12:18:24.438Z,30.04
2018-08-03T12:21:30.742Z,30.13
2018-08-03T12:24:36.722Z,30.19
2018-08-03T12:27:41.861Z,30.24
2018-08-03T12:30:47.021Z,30.32
2018-08-03T12:33:53.202Z,30.37
2018-08-03T12:36:58.363Z,30.45
2018-08-03T12:40:03.702Z,30.49
2018-08-03T12:43:08.866Z,30.53
2018-08-03T12:46:14.230Z,30.59
2018-08-03T12:49:20.636Z,30.64
2018-08-03T12:52:26.150Z,30.63
2018-08-03T12:55:32.537Z,30.64
2018-08-03T12:58:40.874Z,30.62
2018-08-03T13:01:46.994Z,30.61
2018-08-03T13:04:53.619Z,30.56
2018-08-03T13:07:59.400Z,30.53
2018-08-03T13:11:04.838Z,30.50
2018-08-03T13:14:10.278Z,30.47
2018-08-03T13:17:16.230Z,30.45
2018-08-03T13:20:22.523Z,30.45
2018-08-03T13:23:28.376Z,30.44
2018-08-03T13:26:33.849Z,30.43
2018-08-03T13:29:40.278Z,30.44
2018-08-03T13:32:46.338Z,30.46
2018-08-03T13:35:52.295Z,30.44
2018-08-03T13:38:59.575Z,30.39
2018-08-03T13:42:05.825Z,30.34
2018-08-03T13:45:11.484Z,30.34
2018-08-03T13:48:18.441Z,30.33
2018-08-03T13:51:24.662Z,30.30
2018-08-03T13:54:30.394Z,30.23
2018-08-03T13:57:36.608Z,30.21
2018-08-03T14:00:42.851Z,30.22
2018-08-03T14:03:48.503Z,30.22
2018-08-03T14:06:54.623Z,30.21
2018-08-03T14:09:59.986Z,30.25
2018-08-03T14:13:05.244Z,30.31
2018-08-03T14:16:11.000Z,30.34
2018-08-03T14:19:17.263Z,30.36
2018-08-03T14:22:24.456Z,30.37
2018-08-03T14:25:30.252Z,30.34
2018-08-03T14:28:37.502Z,30.30
2018-08-03T14:31:44.767Z,30.26
2018-08-03T14:34:50.797Z,30.24
2018-08-03T14:37:56.906Z,30.24
2018-08-03T14:41:02.689Z,30.24
2018-08-03T14:44:09.556Z,30.28
2018-08-03T14:47:16.222Z,30.37
2018-08-03T14:50:22.209Z,30.43
2018-08-03T14:53:28.264Z,30.52
2018-08-03T14:56:33.397Z,30.60
2018-08-03T14:59:39.504Z,30.69
2018-08-03T15:02:45.584Z,30.79
2018-08-03T15:05:51.685Z,30.88
2018-08-03T15:08:57.553Z,30.93
2018-08-03T15:12:03.791Z,30.97
2018-08-03T15:15:10.830Z,30.97
2018-08-03T15:18:18.002Z,30.98
2018-08-03T15:21:23.572Z,30.94
2018-08-03T15:24:29.475Z,30.92
2018-08-03T15:27:35.760Z,30.89
2018-08-03T15:30:42.886Z,30.83
2018-08-03T15:33:48.696Z,30.79
2018-08-03T15:36:55.645Z,30.75
2018-08-03T15:40:01.696Z,30.69
2018-08-03T15:43:07.558Z,30.68
2018-08-03T15:46:13.750Z,30.63
2018-08-03T15:49:19.816Z,30.59
2018-08-03T15:52:27.270Z,30.58
2018-08-03T15:55:32.433Z,30.55
2018-08-03T15:58:38.001Z,30.56
2018-08-03T16:01:44.262Z,30.51
2018-08-03T16:04:50.301Z,30.48
2018-08-03T16:07:56.371Z,30.44
2018-08-03T16:11:02.306Z,30.43
2018-08-03T16:14:08.281Z,30.43
2018-08-03T16:17:15.217Z,30.40
2018-08-03T16:20:22.254Z,30.36
2018-08-03T16:23:30.895Z,30.39
2018-08-03T16:26:36.062Z,30.38
2018-08-03T16:29:42.094Z,30.43
2018-08-03T16:32:48.008Z,30.47
2018-08-03T16:35:54.110Z,30.47
2018-08-03T16:39:00.315Z,30.49
2018-08-03T16:42:06.131Z,30.47
2018-08-03T16:45:11.275Z,30.47
2018-08-03T16:48:17.972Z,30.43
2018-08-03T16:51:23.985Z,30.40
2018-08-03T16:54:29.398Z,30.35
2018-08-03T16:57:34.929Z,30.33
2018-08-03T17:00:41.011Z,30.30
2018-08-03T17:03:46.994Z,30.27
2018-08-03T17:06:53.469Z,30.23
2018-08-03T17:10:00.480Z,30.22
2018-08-03T17:13:07.614Z,30.17
2018-08-03T17:16:13.619Z,30.11
2018-08-03T17:19:19.690Z,30.07
2018-08-03T17:22:26.878Z,29.99
2018-08-03T17:25:33.629Z,29.93
2018-08-03T17:28:40.410Z,29.87
2018-08-03T17:31:46.372Z,29.80
2018-08-03T17:34:51.493Z,29.73
2018-08-03T17:37:57.587Z,29.68
2018-08-03T17:41:03.821Z,29.61
2018-08-03T17:44:09.622Z,29.56
2018-08-03T17:47:16.401Z,29.48
2018-08-03T17:50:23.099Z,29.40
2018-08-03T17:53:28.437Z,29.33
2018-08-03T17:56:33.601Z,29.27
2018-08-03T17:59:38.718Z,29.19
2018-08-03T18:02:44.252Z,29.14
2018-08-03T18:05:50.375Z,29.06
2018-08-03T18:08:57.011Z,28.98
2018-08-03T18:12:03.627Z,28.91
2018-08-03T18:15:10.245Z,28.83
2018-08-03T18:18:16.135Z,28.76
2018-08-03T18:21:22.043Z,28.69
2018-08-03T18:24:28.082Z,28.62
2018-08-03T18:27:34.682Z,28.53
2018-08-03T18:30:40.519Z,28.46
2018-08-03T18:33:46.527Z,28.39
2018-08-03T18:36:53.059Z,28.33
2018-08-03T18:39:59.927Z,28.26
2018-08-03T18:43:06.852Z,28.18
2018-08-03T18:46:12.955Z,28.09
2018-08-03T18:49:18.253Z,28.02
2018-08-03T18:52:23.854Z,27.95
2018-08-03T18:55:30.991Z,27.88
2018-08-03T18:58:37.918Z,27.80
2018-08-03T19:01:44.668Z,27.73
2018-08-03T19:04:50.664Z,27.65
2018-08-03T19:07:56.767Z,27.57
2018-08-03T19:11:02.743Z,27.50
2018-08-03T19:14:07.883Z,27.43
2018-08-03T19:17:13.080Z,27.35
2018-08-03T19:20:19.338Z,27.28
2018-08-03T19:23:26.289Z,27.20
2018-08-03T19:26:32.003Z,27.12
2018-08-03T19:29:37.154Z,27.04
2018-08-03T19:32:42.300Z,26.96
2018-08-03T19:35:47.670Z,26.88
2018-08-03T19:38:53.506Z,26.79
2018-08-03T19:42:00.563Z,26.71
2018-08-03T19:45:07.850Z,26.63
2018-08-03T19:48:13.835Z,26.54
2018-08-03T19:51:19.705Z,26.45
2018-08-03T19:54:24.880Z,26.35
2018-08-03T19:57:30.974Z,26.29
2018-08-03T20:00:36.120Z,26.19
2018-08-03T20:03:41.612Z,26.12
2018-08-03T20:06:47.600Z,26.01
2018-08-03T20:09:53.847Z,25.94
2018-08-03T20:12:58.718Z,25.87
2018-08-03T20:16:04.275Z,25.78
2018-08-03T20:19:10.843Z,25.70
2018-08-03T20:22:17.891Z,25.62
2018-08-03T20:25:24.002Z,25.56
2018-08-03T20:28:30.166Z,25.50
2018-08-03T20:31:36.374Z,25.44
2018-08-03T20:34:42.270Z,25.37
2018-08-03T20:37:49.228Z,25.29
2018-08-03T20:40:55.207Z,25.21
2018-08-03T20:44:01.089Z,25.14
2018-08-03T20:47:06.292Z,25.07
2018-08-03T20:50:11.442Z,25.01
2018-08-03T20:53:16.572Z,24.96
2018-08-03T20:56:21.706Z,24.90
2018-08-03T20:59:26.880Z,24.82
2018-08-03T21:02:32.066Z,24.76
2018-08-03T21:05:37.201Z,24.70
2018-08-03T21:08:42.340Z,24.64
2018-08-03T21:11:47.466Z,24.61
2018-08-03T21:14:52.609Z,24.52
2018-08-03T21:17:58.262Z,24.48
2018-08-03T21:21:04.180Z,24.41
2018-08-03T21:24:09.686Z,24.37
2018-08-03T21:27:16.530Z,24.32
2018-08-03T21:30:22.314Z,24.26
2018-08-03T21:33:28.229Z,24.20
2018-08-03T21:36:35.422Z,24.15
2018-08-03T21:39:41.923Z,24.11
2018-08-03T21:42:49.094Z,24.07
2018-08-03T21:45:55.046Z,23.98
2018-08-03T21:49:02.361Z,23.93
2018-08-03T21:52:09.317Z,23.89
2018-08-03T21:55:16.515Z,23.83
2018-08-03T21:58:23.374Z,23.79
2018-08-03T22:01:29.134Z,23.72
2018-08-03T22:04:34.926Z,23.66
2018-08-03T22:07:40.799Z,23.57
2018-08-03T22:10:46.472Z,23.52
2018-08-03T22:13:51.606Z,23.48
2018-08-03T22:16:58.094Z,23.43
2018-08-03T22:20:04.210Z,23.36
2018-08-03T22:23:10.109Z,23.29
2018-08-03T22:26:16.157Z,23.24
2018-08-03T22:29:23.426Z,23.19
2018-08-03T22:32:30.626Z,23.15
2018-08-03T22:35:36.656Z,23.11
2018-08-03T22:38:42.978Z,23.07
2018-08-03T22:41:48.599Z,23.01
2018-08-03T22:44:53.715Z,22.97
2018-08-03T22:47:59.149Z,22.92
2018-08-03T22:51:05.641Z,22.85
2018-08-03T22:54:10.820Z,22.79
2018-08-03T22:57:16.781Z,22.74
2018-08-03T23:00:23.081Z,22.71
2018-08-03T23:03:28.977Z,22.64
2018-08-03T23:06:36.016Z,22.62
2018-08-03T23:09:42.217Z,22.59
2018-08-03T23:12:48.345Z,22.54
2018-08-03T23:15:54.256Z,22.49
2018-08-03T23:19:00.058Z,22.49
2018-08-03T23:22:06.279Z,22.44
2018-08-03T23:25:11.790Z,22.40
2018-08-03T23:28:16.981Z,22.41
2018-08-03T23:31:22.258Z,22.35
2018-08-03T23:34:28.342Z,22.31
2018-08-03T23:37:34.929Z,22.29
2018-08-03T23:40:40.315Z,22.28
2018-08-03T23:43:46.416Z,22.26
2018-08-03T23:46:51.581Z,22.24
2018-08-03T23:49:58.573Z,22.19
2018-08-03T23:53:04.480Z,22.21
2018-08-03T23:56:10.442Z,22.12
2018-08-03T23:59:17.527Z,22.07
